sensor_id;sensor_type;location;lat;lon;timestamp;P1;durP1;ratioP1;P2;durP2;ratioP2
79126;SDS011;68528;48.814;8.904;2023-08-06T00:00:04;3.72;;;2.67;;
79126;SDS011;68528;48.814;8.904;2023-08-06T00:02:30;5.53;;;2.45;;
79126;SDS011;68528;48.814;8.904;2023-08-06T00:04:56;2.85;;;2.47;;
79126;SDS011;68528;48.814;8.904;2023-08-06T00:07:21;3.65;;;2.67;;
79126;SDS011;68528;48.814;8.904;2023-08-06T00:09:47;4.90;;;2.92;;
79126;SDS011;68528;48.814;8.904;2023-08-06T00:12:13;4.15;;;2.53;;
79126;SDS011;68528;48.814;8.904;2023-08-06T00:14:41;4.13;;;2.70;;
79126;SDS011;68528;48.814;8.904;2023-08-06T00:17:10;3.10;;;2.80;;
79126;SDS011;68528;48.814;8.904;2023-08-06T00:19:37;4.03;;;2.88;;
79126;SDS011;68528;48.814;8.904;2023-08-06T00:22:02;2.78;;;2.03;;
79126;SDS011;68528;48.814;8.904;2023-08-06T00:24:28;3.67;;;2.30;;
79126;SDS011;68528;48.814;8.904;2023-08-06T00:26:54;2.92;;;2.45;;
79126;SDS011;68528;48.814;8.904;2023-08-06T00:29:19;3.40;;;2.65;;
79126;SDS011;68528;48.814;8.904;2023-08-06T00:31:48;3.70;;;2.42;;
79126;SDS011;68528;48.814;8.904;2023-08-06T00:34:14;3.40;;;2.50;;
79126;SDS011;68528;48.814;8.904;2023-08-06T00:36:41;2.92;;;2.53;;
79126;SDS011;68528;48.814;8.904;2023-08-06T00:39:11;3.47;;;2.63;;
79126;SDS011;68528;48.814;8.904;2023-08-06T00:41:37;3.15;;;2.47;;
79126;SDS011;68528;48.814;8.904;2023-08-06T00:44:03;3.25;;;2.45;;
79126;SDS011;68528;48.814;8.904;2023-08-06T00:46:29;3.25;;;2.47;;
79126;SDS011;68528;48.814;8.904;2023-08-06T00:48:55;3.38;;;2.67;;
79126;SDS011;68528;48.814;8.904;2023-08-06T00:51:23;3.90;;;2.92;;
79126;SDS011;68528;48.814;8.904;2023-08-06T00:53:52;2.50;;;2.03;;
79126;SDS011;68528;48.814;8.904;2023-08-06T00:56:19;3.70;;;2.80;;
79126;SDS011;68528;48.814;8.904;2023-08-06T00:58:45;4.35;;;3.05;;
79126;SDS011;68528;48.814;8.904;2023-08-06T01:01:11;4.60;;;2.55;;
79126;SDS011;68528;48.814;8.904;2023-08-06T01:03:36;3.13;;;2.83;;
79126;SDS011;68528;48.814;8.904;2023-08-06T01:06:02;3.20;;;2.72;;
79126;SDS011;68528;48.814;8.904;2023-08-06T01:08:30;3.25;;;2.63;;
79126;SDS011;68528;48.814;8.904;2023-08-06T01:17:14;4.28;;;2.92;;
79126;SDS011;68528;48.814;8.904;2023-08-06T01:19:40;4.53;;;3.13;;
79126;SDS011;68528;48.814;8.904;2023-08-06T01:22:05;4.97;;;3.00;;
79126;SDS011;68528;48.814;8.904;2023-08-06T01:24:36;4.20;;;3.00;;
79126;SDS011;68528;48.814;8.904;2023-08-06T01:27:10;5.78;;;2.83;;
79126;SDS011;68528;48.814;8.904;2023-08-06T01:29:46;4.10;;;2.90;;
79126;SDS011;68528;48.814;8.904;2023-08-06T01:32:17;4.22;;;2.67;;
79126;SDS011;68528;48.814;8.904;2023-08-06T01:34:45;5.95;;;2.83;;
79126;SDS011;68528;48.814;8.904;2023-08-06T01:37:13;4.72;;;2.80;;
79126;SDS011;68528;48.814;8.904;2023-08-06T01:39:42;4.30;;;3.13;;
79126;SDS011;68528;48.814;8.904;2023-08-06T01:42:08;4.15;;;2.60;;
79126;SDS011;68528;48.814;8.904;2023-08-06T01:45:03;3.50;;;2.75;;
79126;SDS011;68528;48.814;8.904;2023-08-06T01:47:30;3.30;;;2.30;;
79126;SDS011;68528;48.814;8.904;2023-08-06T01:49:56;3.10;;;2.28;;
79126;SDS011;68528;48.814;8.904;2023-08-06T01:52:22;3.20;;;2.40;;
79126;SDS011;68528;48.814;8.904;2023-08-06T01:54:48;5.15;;;2.55;;
79126;SDS011;68528;48.814;8.904;2023-08-06T01:57:14;3.58;;;2.42;;
79126;SDS011;68528;48.814;8.904;2023-08-06T01:59:39;5.50;;;2.80;;
79126;SDS011;68528;48.814;8.904;2023-08-06T02:02:04;3.45;;;2.67;;
79126;SDS011;68528;48.814;8.904;2023-08-06T02:04:38;4.85;;;2.80;;
79126;SDS011;68528;48.814;8.904;2023-08-06T02:07:04;3.17;;;2.88;;
79126;SDS011;68528;48.814;8.904;2023-08-06T02:09:29;3.50;;;2.45;;
79126;SDS011;68528;48.814;8.904;2023-08-06T02:11:55;4.70;;;2.78;;
79126;SDS011;68528;48.814;8.904;2023-08-06T02:14:21;6.38;;;2.72;;
79126;SDS011;68528;48.814;8.904;2023-08-06T02:16:48;3.03;;;2.20;;
79126;SDS011;68528;48.814;8.904;2023-08-06T02:19:14;3.75;;;2.58;;
79126;SDS011;68528;48.814;8.904;2023-08-06T02:21:40;3.67;;;2.20;;
79126;SDS011;68528;48.814;8.904;2023-08-06T02:24:05;4.75;;;2.28;;
79126;SDS011;68528;48.814;8.904;2023-08-06T02:26:35;4.82;;;2.90;;
79126;SDS011;68528;48.814;8.904;2023-08-06T02:29:00;3.92;;;2.33;;
79126;SDS011;68528;48.814;8.904;2023-08-06T02:31:25;4.23;;;2.43;;
79126;SDS011;68528;48.814;8.904;2023-08-06T02:33:51;4.28;;;2.60;;
79126;SDS011;68528;48.814;8.904;2023-08-06T02:36:16;4.72;;;2.67;;
79126;SDS011;68528;48.814;8.904;2023-08-06T02:38:42;3.88;;;2.92;;
79126;SDS011;68528;48.814;8.904;2023-08-06T02:41:12;3.03;;;2.33;;
79126;SDS011;68528;48.814;8.904;2023-08-06T02:43:41;4.22;;;2.72;;
79126;SDS011;68528;48.814;8.904;2023-08-06T02:46:06;6.55;;;3.03;;
79126;SDS011;68528;48.814;8.904;2023-08-06T02:48:31;5.10;;;2.65;;
79126;SDS011;68528;48.814;8.904;2023-08-06T02:50:57;5.47;;;2.40;;
79126;SDS011;68528;48.814;8.904;2023-08-06T02:53:27;3.38;;;2.05;;
79126;SDS011;68528;48.814;8.904;2023-08-06T02:55:52;3.97;;;2.40;;
79126;SDS011;68528;48.814;8.904;2023-08-06T03:03:24;3.22;;;2.22;;
79126;SDS011;68528;48.814;8.904;2023-08-06T03:05:53;4.32;;;2.45;;
79126;SDS011;68528;48.814;8.904;2023-08-06T03:08:35;3.50;;;2.50;;
79126;SDS011;68528;48.814;8.904;2023-08-06T03:11:02;2.88;;;2.08;;
79126;SDS011;68528;48.814;8.904;2023-08-06T03:13:29;3.20;;;2.17;;
79126;SDS011;68528;48.814;8.904;2023-08-06T03:15:57;6.03;;;2.58;;
79126;SDS011;68528;48.814;8.904;2023-08-06T03:18:46;3.80;;;1.90;;
79126;SDS011;68528;48.814;8.904;2023-08-06T03:21:14;4.50;;;2.17;;
79126;SDS011;68528;48.814;8.904;2023-08-06T03:23:39;3.15;;;2.30;;
79126;SDS011;68528;48.814;8.904;2023-08-06T03:26:05;5.43;;;2.05;;
79126;SDS011;68528;48.814;8.904;2023-08-06T03:28:30;4.15;;;1.88;;
79126;SDS011;68528;48.814;8.904;2023-08-06T03:31:02;3.33;;;2.30;;
79126;SDS011;68528;48.814;8.904;2023-08-06T03:33:28;6.60;;;1.98;;
79126;SDS011;68528;48.814;8.904;2023-08-06T03:36:19;5.15;;;2.45;;
79126;SDS011;68528;48.814;8.904;2023-08-06T03:38:47;5.40;;;2.03;;
79126;SDS011;68528;48.814;8.904;2023-08-06T03:41:12;2.78;;;2.20;;
79126;SDS011;68528;48.814;8.904;2023-08-06T03:43:38;5.22;;;2.20;;
79126;SDS011;68528;48.814;8.904;2023-08-06T03:46:03;4.43;;;2.20;;
79126;SDS011;68528;48.814;8.904;2023-08-06T03:48:29;5.15;;;2.22;;
79126;SDS011;68528;48.814;8.904;2023-08-06T03:50:54;2.95;;;1.40;;
79126;SDS011;68528;48.814;8.904;2023-08-06T03:53:20;2.15;;;1.63;;
79126;SDS011;68528;48.814;8.904;2023-08-06T03:55:47;3.40;;;1.73;;
79126;SDS011;68528;48.814;8.904;2023-08-06T03:58:15;3.33;;;1.67;;
79126;SDS011;68528;48.814;8.904;2023-08-06T04:00:40;3.50;;;1.83;;
79126;SDS011;68528;48.814;8.904;2023-08-06T04:03:06;3.10;;;1.67;;
79126;SDS011;68528;48.814;8.904;2023-08-06T04:05:31;5.18;;;2.17;;
79126;SDS011;68528;48.814;8.904;2023-08-06T04:07:57;3.78;;;1.70;;
79126;SDS011;68528;48.814;8.904;2023-08-06T04:10:24;8.00;;;2.30;;
79126;SDS011;68528;48.814;8.904;2023-08-06T04:12:58;4.13;;;2.00;;
79126;SDS011;68528;48.814;8.904;2023-08-06T04:15:26;4.47;;;1.92;;
79126;SDS011;68528;48.814;8.904;2023-08-06T04:17:52;4.97;;;2.10;;
79126;SDS011;68528;48.814;8.904;2023-08-06T04:20:18;4.30;;;1.85;;
79126;SDS011;68528;48.814;8.904;2023-08-06T04:22:45;3.15;;;1.67;;
79126;SDS011;68528;48.814;8.904;2023-08-06T04:25:35;2.38;;;1.70;;
79126;SDS011;68528;48.814;8.904;2023-08-06T04:28:13;5.72;;;2.33;;
79126;SDS011;68528;48.814;8.904;2023-08-06T04:30:39;4.47;;;2.03;;
79126;SDS011;68528;48.814;8.904;2023-08-06T04:33:07;3.25;;;1.45;;
79126;SDS011;68528;48.814;8.904;2023-08-06T04:35:33;2.28;;;1.58;;
79126;SDS011;68528;48.814;8.904;2023-08-06T04:37:58;2.83;;;1.60;;
79126;SDS011;68528;48.814;8.904;2023-08-06T04:40:27;3.97;;;1.40;;
79126;SDS011;68528;48.814;8.904;2023-08-06T04:42:53;3.80;;;1.17;;
79126;SDS011;68528;48.814;8.904;2023-08-06T04:45:18;1.48;;;0.88;;
79126;SDS011;68528;48.814;8.904;2023-08-06T04:47:47;1.02;;;0.93;;
79126;SDS011;68528;48.814;8.904;2023-08-06T04:50:17;1.45;;;0.73;;
79126;SDS011;68528;48.814;8.904;2023-08-06T04:52:50;1.80;;;0.75;;
79126;SDS011;68528;48.814;8.904;2023-08-06T04:55:16;1.23;;;0.70;;
79126;SDS011;68528;48.814;8.904;2023-08-06T04:57:41;1.45;;;0.68;;
79126;SDS011;68528;48.814;8.904;2023-08-06T05:00:07;1.20;;;0.57;;
79126;SDS011;68528;48.814;8.904;2023-08-06T05:02:32;1.13;;;0.90;;
79126;SDS011;68528;48.814;8.904;2023-08-06T05:04:59;1.58;;;0.73;;
79126;SDS011;68528;48.814;8.904;2023-08-06T05:07:45;1.33;;;0.93;;
79126;SDS011;68528;48.814;8.904;2023-08-06T05:10:35;1.85;;;0.77;;
79126;SDS011;68528;48.814;8.904;2023-08-06T05:13:07;1.00;;;0.60;;
79126;SDS011;68528;48.814;8.904;2023-08-06T05:15:32;2.30;;;0.52;;
79126;SDS011;68528;48.814;8.904;2023-08-06T05:17:58;0.30;;;0.30;;
79126;SDS011;68528;48.814;8.904;2023-08-06T05:20:23;1.08;;;0.80;;
79126;SDS011;68528;48.814;8.904;2023-08-06T05:22:49;2.90;;;0.70;;
79126;SDS011;68528;48.814;8.904;2023-08-06T05:25:17;0.80;;;0.50;;
79126;SDS011;68528;48.814;8.904;2023-08-06T05:27:51;0.70;;;0.55;;
79126;SDS011;68528;48.814;8.904;2023-08-06T05:30:22;1.23;;;0.60;;
79126;SDS011;68528;48.814;8.904;2023-08-06T05:32:48;1.42;;;0.93;;
79126;SDS011;68528;48.814;8.904;2023-08-06T05:35:13;0.35;;;0.30;;
79126;SDS011;68528;48.814;8.904;2023-08-06T05:37:39;2.35;;;0.70;;
79126;SDS011;68528;48.814;8.904;2023-08-06T05:40:04;0.80;;;0.70;;
79126;SDS011;68528;48.814;8.904;2023-08-06T05:42:30;2.13;;;0.50;;
79126;SDS011;68528;48.814;8.904;2023-08-06T05:45:18;0.95;;;0.77;;
79126;SDS011;68528;48.814;8.904;2023-08-06T05:48:53;1.40;;;0.70;;
79126;SDS011;68528;48.814;8.904;2023-08-06T05:51:20;2.30;;;0.43;;
79126;SDS011;68528;48.814;8.904;2023-08-06T05:53:50;3.00;;;0.77;;
79126;SDS011;68528;48.814;8.904;2023-08-06T05:57:02;4.65;;;0.85;;
79126;SDS011;68528;48.814;8.904;2023-08-06T05:59:50;2.15;;;0.40;;
79126;SDS011;68528;48.814;8.904;2023-08-06T06:02:24;1.50;;;0.47;;
79126;SDS011;68528;48.814;8.904;2023-08-06T06:04:50;2.45;;;0.75;;
79126;SDS011;68528;48.814;8.904;2023-08-06T06:07:56;1.02;;;0.70;;
79126;SDS011;68528;48.814;8.904;2023-08-06T06:10:27;4.35;;;0.60;;
79126;SDS011;68528;48.814;8.904;2023-08-06T06:12:53;0.95;;;0.70;;
79126;SDS011;68528;48.814;8.904;2023-08-06T06:15:42;1.25;;;0.80;;
79126;SDS011;68528;48.814;8.904;2023-08-06T06:18:08;2.03;;;0.50;;
79126;SDS011;68528;48.814;8.904;2023-08-06T06:20:35;0.70;;;0.52;;
79126;SDS011;68528;48.814;8.904;2023-08-06T06:23:02;5.15;;;0.73;;
79126;SDS011;68528;48.814;8.904;2023-08-06T06:25:29;3.80;;;0.52;;
79126;SDS011;68528;48.814;8.904;2023-08-06T06:27:56;0.80;;;0.50;;
79126;SDS011;68528;48.814;8.904;2023-08-06T06:30:23;0.80;;;0.50;;
79126;SDS011;68528;48.814;8.904;2023-08-06T06:32:49;1.10;;;0.32;;
79126;SDS011;68528;48.814;8.904;2023-08-06T06:35:14;2.75;;;0.73;;
79126;SDS011;68528;48.814;8.904;2023-08-06T06:37:39;3.22;;;0.40;;
79126;SDS011;68528;48.814;8.904;2023-08-06T06:40:07;0.88;;;0.43;;
79126;SDS011;68528;48.814;8.904;2023-08-06T06:42:38;0.82;;;0.50;;
79126;SDS011;68528;48.814;8.904;2023-08-06T06:45:05;1.42;;;0.40;;
79126;SDS011;68528;48.814;8.904;2023-08-06T06:47:31;4.68;;;0.40;;
79126;SDS011;68528;48.814;8.904;2023-08-06T06:49:57;0.88;;;0.20;;
79126;SDS011;68528;48.814;8.904;2023-08-06T06:52:24;0.73;;;0.30;;
79126;SDS011;68528;48.814;8.904;2023-08-06T06:54:49;0.20;;;0.20;;
79126;SDS011;68528;48.814;8.904;2023-08-06T06:57:35;0.80;;;0.30;;
79126;SDS011;68528;48.814;8.904;2023-08-06T07:00:01;0.77;;;0.50;;
79126;SDS011;68528;48.814;8.904;2023-08-06T07:02:28;0.95;;;0.40;;
79126;SDS011;68528;48.814;8.904;2023-08-06T07:04:54;0.40;;;0.22;;
79126;SDS011;68528;48.814;8.904;2023-08-06T07:07:19;1.42;;;0.38;;
79126;SDS011;68528;48.814;8.904;2023-08-06T07:09:45;2.05;;;0.30;;
79126;SDS011;68528;48.814;8.904;2023-08-06T07:12:18;0.70;;;0.20;;
79126;SDS011;68528;48.814;8.904;2023-08-06T07:14:51;0.22;;;0.20;;
79126;SDS011;68528;48.814;8.904;2023-08-06T07:17:52;0.65;;;0.30;;
79126;SDS011;68528;48.814;8.904;2023-08-06T07:23:19;3.10;;;0.40;;
79126;SDS011;68528;48.814;8.904;2023-08-06T07:25:54;0.45;;;0.30;;
79126;SDS011;68528;48.814;8.904;2023-08-06T07:28:38;0.82;;;0.30;;
79126;SDS011;68528;48.814;8.904;2023-08-06T07:31:27;0.30;;;0.30;;
79126;SDS011;68528;48.814;8.904;2023-08-06T07:33:55;0.50;;;0.30;;
79126;SDS011;68528;48.814;8.904;2023-08-06T07:36:45;0.30;;;0.20;;
79126;SDS011;68528;48.814;8.904;2023-08-06T07:39:45;0.52;;;0.10;;
79126;SDS011;68528;48.814;8.904;2023-08-06T07:42:13;0.10;;;0.10;;
79126;SDS011;68528;48.814;8.904;2023-08-06T07:44:39;1.30;;;0.20;;
79126;SDS011;68528;48.814;8.904;2023-08-06T07:47:18;2.40;;;0.40;;
79126;SDS011;68528;48.814;8.904;2023-08-06T07:49:52;0.10;;;0.10;;
79126;SDS011;68528;48.814;8.904;2023-08-06T07:52:28;0.10;;;0.08;;
79126;SDS011;68528;48.814;8.904;2023-08-06T07:54:59;0.20;;;0.10;;
79126;SDS011;68528;48.814;8.904;2023-08-06T08:00:12;1.05;;;0.52;;
79126;SDS011;68528;48.814;8.904;2023-08-06T08:02:38;1.10;;;0.40;;
79126;SDS011;68528;48.814;8.904;2023-08-06T08:05:14;1.00;;;0.70;;
79126;SDS011;68528;48.814;8.904;2023-08-06T08:07:40;1.63;;;0.70;;
79126;SDS011;68528;48.814;8.904;2023-08-06T08:10:05;0.50;;;0.28;;
79126;SDS011;68528;48.814;8.904;2023-08-06T08:12:40;0.20;;;0.20;;
79126;SDS011;68528;48.814;8.904;2023-08-06T08:15:56;0.10;;;0.10;;
79126;SDS011;68528;48.814;8.904;2023-08-06T08:18:30;0.10;;;0.10;;
79126;SDS011;68528;48.814;8.904;2023-08-06T08:20:59;0.20;;;0.13;;
79126;SDS011;68528;48.814;8.904;2023-08-06T08:30:04;0.28;;;0.22;;
79126;SDS011;68528;48.814;8.904;2023-08-06T08:32:40;0.30;;;0.28;;
79126;SDS011;68528;48.814;8.904;2023-08-06T08:35:06;2.92;;;0.13;;
79126;SDS011;68528;48.814;8.904;2023-08-06T08:37:32;0.10;;;0.10;;
79126;SDS011;68528;48.814;8.904;2023-08-06T08:39:58;0.00;;;0.00;;
79126;SDS011;68528;48.814;8.904;2023-08-06T08:42:23;1.23;;;0.10;;
79126;SDS011;68528;48.814;8.904;2023-08-06T08:44:49;4.13;;;0.20;;
79126;SDS011;68528;48.814;8.904;2023-08-06T08:47:15;0.20;;;0.10;;
79126;SDS011;68528;48.814;8.904;2023-08-06T08:49:47;0.10;;;0.10;;
79126;SDS011;68528;48.814;8.904;2023-08-06T08:52:23;0.85;;;0.20;;
79126;SDS011;68528;48.814;8.904;2023-08-06T08:54:53;0.38;;;0.22;;
79126;SDS011;68528;48.814;8.904;2023-08-06T08:57:19;0.20;;;0.13;;
79126;SDS011;68528;48.814;8.904;2023-08-06T08:59:46;4.75;;;0.10;;
79126;SDS011;68528;48.814;8.904;2023-08-06T09:02:12;0.20;;;0.10;;
79126;SDS011;68528;48.814;8.904;2023-08-06T09:04:40;0.20;;;0.10;;
79126;SDS011;68528;48.814;8.904;2023-08-06T09:07:08;0.60;;;0.30;;
79126;SDS011;68528;48.814;8.904;2023-08-06T09:09:38;0.20;;;0.10;;
79126;SDS011;68528;48.814;8.904;2023-08-06T09:12:07;0.20;;;0.20;;
79126;SDS011;68528;48.814;8.904;2023-08-06T09:14:37;0.82;;;0.30;;
79126;SDS011;68528;48.814;8.904;2023-08-06T09:17:03;0.40;;;0.20;;
79126;SDS011;68528;48.814;8.904;2023-08-06T09:19:29;1.08;;;0.10;;
79126;SDS011;68528;48.814;8.904;2023-08-06T09:21:56;0.10;;;0.08;;
79126;SDS011;68528;48.814;8.904;2023-08-06T09:24:22;0.10;;;0.10;;
79126;SDS011;68528;48.814;8.904;2023-08-06T09:26:47;0.00;;;0.00;;
79126;SDS011;68528;48.814;8.904;2023-08-06T09:29:20;0.20;;;0.10;;
79126;SDS011;68528;48.814;8.904;2023-08-06T09:31:49;0.10;;;0.10;;
79126;SDS011;68528;48.814;8.904;2023-08-06T09:34:19;0.20;;;0.20;;
79126;SDS011;68528;48.814;8.904;2023-08-06T09:36:49;0.10;;;0.10;;
79126;SDS011;68528;48.814;8.904;2023-08-06T09:39:31;0.20;;;0.20;;
79126;SDS011;68528;48.814;8.904;2023-08-06T09:42:00;2.10;;;1.50;;
79126;SDS011;68528;48.814;8.904;2023-08-06T09:44:27;0.70;;;0.20;;
79126;SDS011;68528;48.814;8.904;2023-08-06T09:46:55;0.30;;;0.10;;
79126;SDS011;68528;48.814;8.904;2023-08-06T09:49:26;0.20;;;0.10;;
79126;SDS011;68528;48.814;8.904;2023-08-06T09:51:52;1.73;;;0.93;;
79126;SDS011;68528;48.814;8.904;2023-08-06T09:54:21;2.03;;;0.50;;
79126;SDS011;68528;48.814;8.904;2023-08-06T09:56:47;0.22;;;0.20;;
79126;SDS011;68528;48.814;8.904;2023-08-06T09:59:13;0.20;;;0.20;;
79126;SDS011;68528;48.814;8.904;2023-08-06T10:01:51;0.30;;;0.20;;
79126;SDS011;68528;48.814;8.904;2023-08-06T10:04:20;0.25;;;0.20;;
79126;SDS011;68528;48.814;8.904;2023-08-06T10:06:49;1.25;;;0.10;;
79126;SDS011;68528;48.814;8.904;2023-08-06T10:09:15;0.30;;;0.28;;
79126;SDS011;68528;48.814;8.904;2023-08-06T10:11:41;0.35;;;0.20;;
79126;SDS011;68528;48.814;8.904;2023-08-06T10:16:47;0.40;;;0.30;;
79126;SDS011;68528;48.814;8.904;2023-08-06T10:19:12;0.75;;;0.70;;
79126;SDS011;68528;48.814;8.904;2023-08-06T10:21:41;1.48;;;1.25;;
79126;SDS011;68528;48.814;8.904;2023-08-06T10:24:44;1.10;;;0.73;;
79126;SDS011;68528;48.814;8.904;2023-08-06T10:30:47;0.57;;;0.50;;
79126;SDS011;68528;48.814;8.904;2023-08-06T10:33:45;0.28;;;0.10;;
79126;SDS011;68528;48.814;8.904;2023-08-06T10:36:28;0.10;;;0.10;;
79126;SDS011;68528;48.814;8.904;2023-08-06T10:38:55;0.20;;;0.10;;
79126;SDS011;68528;48.814;8.904;2023-08-06T10:42:03;0.40;;;0.25;;
79126;SDS011;68528;48.814;8.904;2023-08-06T10:47:37;0.90;;;0.40;;
79126;SDS011;68528;48.814;8.904;2023-08-06T10:50:22;0.60;;;0.30;;
79126;SDS011;68528;48.814;8.904;2023-08-06T10:52:48;0.75;;;0.38;;
79126;SDS011;68528;48.814;8.904;2023-08-06T10:55:25;0.20;;;0.20;;
79126;SDS011;68528;48.814;8.904;2023-08-06T10:57:54;0.52;;;0.35;;
79126;SDS011;68528;48.814;8.904;2023-08-06T11:00:41;1.58;;;0.40;;
79126;SDS011;68528;48.814;8.904;2023-08-06T11:03:07;0.50;;;0.35;;
79126;SDS011;68528;48.814;8.904;2023-08-06T11:05:33;0.85;;;0.50;;
79126;SDS011;68528;48.814;8.904;2023-08-06T11:08:02;1.38;;;0.90;;
79126;SDS011;68528;48.814;8.904;2023-08-06T11:10:28;1.30;;;0.70;;
79126;SDS011;68528;48.814;8.904;2023-08-06T11:12:55;0.95;;;0.68;;
79126;SDS011;68528;48.814;8.904;2023-08-06T11:18:54;0.57;;;0.40;;
79126;SDS011;68528;48.814;8.904;2023-08-06T11:21:22;1.50;;;0.80;;
79126;SDS011;68528;48.814;8.904;2023-08-06T11:23:51;1.77;;;0.73;;
79126;SDS011;68528;48.814;8.904;2023-08-06T11:26:28;0.80;;;0.50;;
79126;SDS011;68528;48.814;8.904;2023-08-06T11:28:54;1.00;;;0.80;;
79126;SDS011;68528;48.814;8.904;2023-08-06T11:31:22;1.05;;;0.80;;
79126;SDS011;68528;48.814;8.904;2023-08-06T11:33:55;1.10;;;0.80;;
79126;SDS011;68528;48.814;8.904;2023-08-06T11:36:30;1.13;;;0.90;;
79126;SDS011;68528;48.814;8.904;2023-08-06T11:39:01;2.20;;;0.82;;
79126;SDS011;68528;48.814;8.904;2023-08-06T11:41:36;1.77;;;1.17;;
79126;SDS011;68528;48.814;8.904;2023-08-06T11:44:29;2.25;;;0.90;;
79126;SDS011;68528;48.814;8.904;2023-08-06T11:46:57;2.15;;;0.98;;
79126;SDS011;68528;48.814;8.904;2023-08-06T11:49:38;1.52;;;1.00;;
79126;SDS011;68528;48.814;8.904;2023-08-06T11:52:24;4.43;;;1.10;;
79126;SDS011;68528;48.814;8.904;2023-08-06T11:55:04;2.65;;;1.27;;
79126;SDS011;68528;48.814;8.904;2023-08-06T12:02:30;3.42;;;1.10;;
79126;SDS011;68528;48.814;8.904;2023-08-06T12:07:28;1.70;;;1.60;;
79126;SDS011;68528;48.814;8.904;2023-08-06T12:09:55;4.60;;;1.40;;
79126;SDS011;68528;48.814;8.904;2023-08-06T12:12:23;2.85;;;1.63;;
79126;SDS011;68528;48.814;8.904;2023-08-06T12:14:49;1.33;;;1.00;;
79126;SDS011;68528;48.814;8.904;2023-08-06T12:17:15;4.32;;;1.30;;
79126;SDS011;68528;48.814;8.904;2023-08-06T12:19:40;4.40;;;1.40;;
79126;SDS011;68528;48.814;8.904;2023-08-06T12:22:05;2.57;;;1.43;;
79126;SDS011;68528;48.814;8.904;2023-08-06T12:24:31;1.60;;;0.98;;
79126;SDS011;68528;48.814;8.904;2023-08-06T12:26:59;1.40;;;1.08;;
79126;SDS011;68528;48.814;8.904;2023-08-06T12:29:26;2.80;;;1.15;;
79126;SDS011;68528;48.814;8.904;2023-08-06T12:32:00;3.15;;;1.30;;
79126;SDS011;68528;48.814;8.904;2023-08-06T12:34:26;1.45;;;0.88;;
79126;SDS011;68528;48.814;8.904;2023-08-06T12:36:52;3.07;;;0.80;;
79126;SDS011;68528;48.814;8.904;2023-08-06T12:39:18;1.08;;;0.52;;
79126;SDS011;68528;48.814;8.904;2023-08-06T12:41:43;0.82;;;0.60;;
79126;SDS011;68528;48.814;8.904;2023-08-06T12:44:10;1.85;;;0.60;;
79126;SDS011;68528;48.814;8.904;2023-08-06T12:46:43;1.00;;;0.60;;
79126;SDS011;68528;48.814;8.904;2023-08-06T12:49:13;1.33;;;0.68;;
79126;SDS011;68528;48.814;8.904;2023-08-06T12:51:41;1.35;;;0.65;;
79126;SDS011;68528;48.814;8.904;2023-08-06T12:54:08;1.50;;;0.60;;
79126;SDS011;68528;48.814;8.904;2023-08-06T12:56:36;5.78;;;0.73;;
79126;SDS011;68528;48.814;8.904;2023-08-06T12:59:02;1.50;;;0.85;;
79126;SDS011;68528;48.814;8.904;2023-08-06T13:01:27;1.33;;;0.90;;
79126;SDS011;68528;48.814;8.904;2023-08-06T13:04:08;1.30;;;0.60;;
79126;SDS011;68528;48.814;8.904;2023-08-06T13:06:36;0.85;;;0.60;;
79126;SDS011;68528;48.814;8.904;2023-08-06T13:09:08;1.65;;;0.40;;
79126;SDS011;68528;48.814;8.904;2023-08-06T13:11:35;2.03;;;0.60;;
79126;SDS011;68528;48.814;8.904;2023-08-06T13:14:09;2.47;;;0.77;;
79126;SDS011;68528;48.814;8.904;2023-08-06T13:16:40;0.93;;;0.50;;
79126;SDS011;68528;48.814;8.904;2023-08-06T13:19:07;0.88;;;0.50;;
79126;SDS011;68528;48.814;8.904;2023-08-06T13:24:01;1.00;;;0.60;;
79126;SDS011;68528;48.814;8.904;2023-08-06T13:43:31;0.40;;;0.40;;
79126;SDS011;68528;48.814;8.904;2023-08-06T13:46:07;0.95;;;0.40;;
79126;SDS011;68528;48.814;8.904;2023-08-06T13:49:04;2.08;;;0.90;;
79126;SDS011;68528;48.814;8.904;2023-08-06T13:51:32;0.85;;;0.60;;
79126;SDS011;68528;48.814;8.904;2023-08-06T13:54:21;0.50;;;0.50;;
79126;SDS011;68528;48.814;8.904;2023-08-06T13:57:34;0.77;;;0.60;;
79126;SDS011;68528;48.814;8.904;2023-08-06T14:00:10;1.58;;;0.50;;
79126;SDS011;68528;48.814;8.904;2023-08-06T14:02:39;2.05;;;0.85;;
79126;SDS011;68528;48.814;8.904;2023-08-06T14:05:05;2.20;;;0.60;;
79126;SDS011;68528;48.814;8.904;2023-08-06T14:07:31;1.05;;;0.47;;
79126;SDS011;68528;48.814;8.904;2023-08-06T14:09:56;0.68;;;0.60;;
79126;SDS011;68528;48.814;8.904;2023-08-06T14:12:23;0.75;;;0.50;;
79126;SDS011;68528;48.814;8.904;2023-08-06T14:14:48;0.95;;;0.52;;
79126;SDS011;68528;48.814;8.904;2023-08-06T14:17:14;1.25;;;0.52;;
79126;SDS011;68528;48.814;8.904;2023-08-06T14:19:40;1.48;;;0.63;;
79126;SDS011;68528;48.814;8.904;2023-08-06T14:22:10;0.70;;;0.40;;
79126;SDS011;68528;48.814;8.904;2023-08-06T14:25:06;2.70;;;0.63;;
79126;SDS011;68528;48.814;8.904;2023-08-06T14:28:04;0.93;;;0.50;;
79126;SDS011;68528;48.814;8.904;2023-08-06T14:30:56;1.02;;;0.50;;
79126;SDS011;68528;48.814;8.904;2023-08-06T14:33:26;0.70;;;0.45;;
79126;SDS011;68528;48.814;8.904;2023-08-06T14:39:38;2.28;;;0.82;;
79126;SDS011;68528;48.814;8.904;2023-08-06T14:42:13;1.85;;;0.68;;
79126;SDS011;68528;48.814;8.904;2023-08-06T14:44:39;1.95;;;0.80;;
79126;SDS011;68528;48.814;8.904;2023-08-06T14:47:06;0.65;;;0.60;;
79126;SDS011;68528;48.814;8.904;2023-08-06T14:49:31;0.75;;;0.40;;
79126;SDS011;68528;48.814;8.904;2023-08-06T14:51:56;1.25;;;0.80;;
79126;SDS011;68528;48.814;8.904;2023-08-06T14:54:25;0.90;;;0.60;;
79126;SDS011;68528;48.814;8.904;2023-08-06T14:56:52;3.30;;;0.50;;
79126;SDS011;68528;48.814;8.904;2023-08-06T14:59:42;1.95;;;0.57;;
79126;SDS011;68528;48.814;8.904;2023-08-06T15:02:11;1.38;;;0.80;;
79126;SDS011;68528;48.814;8.904;2023-08-06T15:04:37;2.28;;;0.60;;
79126;SDS011;68528;48.814;8.904;2023-08-06T15:07:02;0.80;;;0.50;;
79126;SDS011;68528;48.814;8.904;2023-08-06T15:09:31;2.58;;;0.57;;
79126;SDS011;68528;48.814;8.904;2023-08-06T15:11:59;0.82;;;0.47;;
79126;SDS011;68528;48.814;8.904;2023-08-06T15:14:48;0.68;;;0.47;;
79126;SDS011;68528;48.814;8.904;2023-08-06T15:17:53;1.85;;;0.60;;
79126;SDS011;68528;48.814;8.904;2023-08-06T15:20:19;1.00;;;0.40;;
79126;SDS011;68528;48.814;8.904;2023-08-06T15:22:44;0.90;;;0.50;;
79126;SDS011;68528;48.814;8.904;2023-08-06T15:25:10;0.85;;;0.43;;
79126;SDS011;68528;48.814;8.904;2023-08-06T15:27:36;1.65;;;0.70;;
79126;SDS011;68528;48.814;8.904;2023-08-06T15:30:02;0.73;;;0.50;;
79126;SDS011;68528;48.814;8.904;2023-08-06T15:32:45;0.65;;;0.55;;
79126;SDS011;68528;48.814;8.904;2023-08-06T15:42:37;1.67;;;0.50;;
79126;SDS011;68528;48.814;8.904;2023-08-06T15:58:17;1.67;;;0.60;;
79126;SDS011;68528;48.814;8.904;2023-08-06T16:01:04;1.05;;;0.50;;
79126;SDS011;68528;48.814;8.904;2023-08-06T16:03:30;1.73;;;0.60;;
79126;SDS011;68528;48.814;8.904;2023-08-06T16:05:57;4.05;;;0.80;;
79126;SDS011;68528;48.814;8.904;2023-08-06T16:08:36;0.60;;;0.60;;
79126;SDS011;68528;48.814;8.904;2023-08-06T16:27:36;2.35;;;0.70;;
79126;SDS011;68528;48.814;8.904;2023-08-06T16:31:06;0.90;;;0.50;;
79126;SDS011;68528;48.814;8.904;2023-08-06T16:33:32;1.70;;;0.57;;
79126;SDS011;68528;48.814;8.904;2023-08-06T16:35:59;1.73;;;0.77;;
79126;SDS011;68528;48.814;8.904;2023-08-06T16:38:25;3.08;;;0.80;;
79126;SDS011;68528;48.814;8.904;2023-08-06T16:40:54;5.35;;;1.00;;
79126;SDS011;68528;48.814;8.904;2023-08-06T16:43:25;3.72;;;1.30;;
79126;SDS011;68528;48.814;8.904;2023-08-06T16:46:11;3.70;;;1.00;;
79126;SDS011;68528;48.814;8.904;2023-08-06T16:52:03;2.83;;;1.10;;
79126;SDS011;68528;48.814;8.904;2023-08-06T16:54:29;2.95;;;1.10;;
79126;SDS011;68528;48.814;8.904;2023-08-06T16:56:55;1.42;;;0.90;;